sensor_id;sensor_type;location;lat;lon;timestamp;P1;durP1;ratioP1;P2;durP2;ratioP2
19127;SDS011;9696;53.686;10.094;2024-02-14T00:00:32;7.27;;;2.60;;
19127;SDS011;9696;53.686;10.094;2024-02-14T00:03:01;5.07;;;2.37;;
19127;SDS011;9696;53.686;10.094;2024-02-14T00:05:31;4.97;;;2.27;;
19127;SDS011;9696;53.686;10.094;2024-02-14T00:08:00;4.70;;;2.10;;
19127;SDS011;9696;53.686;10.094;2024-02-14T00:10:29;8.80;;;2.00;;
19127;SDS011;9696;53.686;10.094;2024-02-14T00:12:58;5.03;;;1.70;;
19127;SDS011;9696;53.686;10.094;2024-02-14T00:15:27;6.83;;;2.30;;
19127;SDS011;9696;53.686;10.094;2024-02-14T00:17:55;3.60;;;2.30;;
19127;SDS011;9696;53.686;10.094;2024-02-14T00:20:24;4.33;;;2.23;;
19127;SDS011;9696;53.686;10.094;2024-02-14T00:22:54;3.33;;;1.90;;
19127;SDS011;9696;53.686;10.094;2024-02-14T00:25:23;4.70;;;2.37;;
19127;SDS011;9696;53.686;10.094;2024-02-14T00:27:51;5.60;;;1.93;;
19127;SDS011;9696;53.686;10.094;2024-02-14T00:30:21;4.53;;;1.73;;
19127;SDS011;9696;53.686;10.094;2024-02-14T00:32:54;1.90;;;1.40;;
19127;SDS011;9696;53.686;10.094;2024-02-14T00:35:24;1.67;;;1.20;;
19127;SDS011;9696;53.686;10.094;2024-02-14T00:37:52;2.60;;;1.80;;
19127;SDS011;9696;53.686;10.094;2024-02-14T00:40:22;2.40;;;1.43;;
19127;SDS011;9696;53.686;10.094;2024-02-14T00:42:51;4.40;;;1.73;;
19127;SDS011;9696;53.686;10.094;2024-02-14T00:45:20;1.57;;;1.40;;
19127;SDS011;9696;53.686;10.094;2024-02-14T00:47:48;5.07;;;1.70;;
19127;SDS011;9696;53.686;10.094;2024-02-14T00:50:17;3.63;;;1.17;;
19127;SDS011;9696;53.686;10.094;2024-02-14T00:52:46;6.87;;;2.07;;
19127;SDS011;9696;53.686;10.094;2024-02-14T00:55:14;3.70;;;1.30;;
19127;SDS011;9696;53.686;10.094;2024-02-14T00:57:44;3.13;;;1.77;;
19127;SDS011;9696;53.686;10.094;2024-02-14T01:00:13;3.00;;;1.33;;
19127;SDS011;9696;53.686;10.094;2024-02-14T01:02:43;2.17;;;1.50;;
19127;SDS011;9696;53.686;10.094;2024-02-14T01:05:12;3.40;;;1.43;;
19127;SDS011;9696;53.686;10.094;2024-02-14T01:07:40;2.07;;;1.37;;
19127;SDS011;9696;53.686;10.094;2024-02-14T01:10:09;3.17;;;1.30;;
19127;SDS011;9696;53.686;10.094;2024-02-14T01:12:37;3.40;;;1.60;;
19127;SDS011;9696;53.686;10.094;2024-02-14T01:15:08;5.00;;;1.43;;
19127;SDS011;9696;53.686;10.094;2024-02-14T01:17:37;3.23;;;1.10;;
19127;SDS011;9696;53.686;10.094;2024-02-14T01:20:06;1.37;;;1.20;;
19127;SDS011;9696;53.686;10.094;2024-02-14T01:22:35;4.87;;;1.40;;
19127;SDS011;9696;53.686;10.094;2024-02-14T01:25:04;5.70;;;1.50;;
19127;SDS011;9696;53.686;10.094;2024-02-14T01:27:33;2.57;;;1.47;;
19127;SDS011;9696;53.686;10.094;2024-02-14T01:30:03;3.60;;;1.10;;
19127;SDS011;9696;53.686;10.094;2024-02-14T01:32:33;2.47;;;1.40;;
19127;SDS011;9696;53.686;10.094;2024-02-14T01:35:02;2.27;;;1.20;;
19127;SDS011;9696;53.686;10.094;2024-02-14T01:37:31;2.27;;;1.30;;
19127;SDS011;9696;53.686;10.094;2024-02-14T01:40:00;1.53;;;1.20;;
19127;SDS011;9696;53.686;10.094;2024-02-14T01:42:30;3.47;;;1.80;;
19127;SDS011;9696;53.686;10.094;2024-02-14T01:44:58;8.77;;;1.50;;
19127;SDS011;9696;53.686;10.094;2024-02-14T01:47:27;1.87;;;1.03;;
19127;SDS011;9696;53.686;10.094;2024-02-14T01:49:57;3.30;;;1.50;;
19127;SDS011;9696;53.686;10.094;2024-02-14T01:52:26;7.23;;;2.20;;
19127;SDS011;9696;53.686;10.094;2024-02-14T01:54:54;2.73;;;1.60;;
19127;SDS011;9696;53.686;10.094;2024-02-14T01:57:23;1.50;;;1.17;;
19127;SDS011;9696;53.686;10.094;2024-02-14T01:59:52;3.63;;;1.50;;
19127;SDS011;9696;53.686;10.094;2024-02-14T02:02:22;7.13;;;1.53;;
19127;SDS011;9696;53.686;10.094;2024-02-14T02:04:50;1.80;;;1.33;;
19127;SDS011;9696;53.686;10.094;2024-02-14T02:07:20;2.00;;;1.27;;
19127;SDS011;9696;53.686;10.094;2024-02-14T02:09:49;2.17;;;1.27;;
19127;SDS011;9696;53.686;10.094;2024-02-14T02:12:17;1.80;;;1.40;;
19127;SDS011;9696;53.686;10.094;2024-02-14T02:14:46;2.40;;;1.47;;
19127;SDS011;9696;53.686;10.094;2024-02-14T02:17:15;1.30;;;1.10;;
19127;SDS011;9696;53.686;10.094;2024-02-14T02:19:44;4.40;;;1.67;;
19127;SDS011;9696;53.686;10.094;2024-02-14T02:22:13;3.30;;;1.33;;
19127;SDS011;9696;53.686;10.094;2024-02-14T02:24:43;2.90;;;1.40;;
19127;SDS011;9696;53.686;10.094;2024-02-14T02:27:12;2.30;;;1.43;;
19127;SDS011;9696;53.686;10.094;2024-02-14T02:29:42;1.87;;;1.50;;
19127;SDS011;9696;53.686;10.094;2024-02-14T02:32:12;2.23;;;1.47;;
19127;SDS011;9696;53.686;10.094;2024-02-14T02:34:43;2.13;;;1.40;;
19127;SDS011;9696;53.686;10.094;2024-02-14T02:37:12;2.20;;;1.60;;
19127;SDS011;9696;53.686;10.094;2024-02-14T02:39:40;4.40;;;1.80;;
19127;SDS011;9696;53.686;10.094;2024-02-14T02:42:10;3.20;;;1.70;;
19127;SDS011;9696;53.686;10.094;2024-02-14T02:44:41;2.87;;;1.50;;
19127;SDS011;9696;53.686;10.094;2024-02-14T02:47:09;2.63;;;1.47;;
19127;SDS011;9696;53.686;10.094;2024-02-14T02:49:39;5.20;;;1.87;;
19127;SDS011;9696;53.686;10.094;2024-02-14T02:52:09;2.30;;;1.57;;
19127;SDS011;9696;53.686;10.094;2024-02-14T02:54:37;7.53;;;1.50;;
19127;SDS011;9696;53.686;10.094;2024-02-14T02:57:07;4.53;;;1.87;;
19127;SDS011;9696;53.686;10.094;2024-02-14T02:59:38;2.73;;;1.77;;
19127;SDS011;9696;53.686;10.094;2024-02-14T03:02:09;4.17;;;2.03;;
19127;SDS011;9696;53.686;10.094;2024-02-14T03:04:38;3.57;;;2.20;;
19127;SDS011;9696;53.686;10.094;2024-02-14T03:07:18;7.63;;;2.77;;
19127;SDS011;9696;53.686;10.094;2024-02-14T03:09:47;8.67;;;4.13;;
19127;SDS011;9696;53.686;10.094;2024-02-14T03:12:16;11.63;;;5.53;;
19127;SDS011;9696;53.686;10.094;2024-02-14T03:14:46;10.90;;;6.00;;
19127;SDS011;9696;53.686;10.094;2024-02-14T03:17:16;10.60;;;4.50;;
19127;SDS011;9696;53.686;10.094;2024-02-14T03:19:44;5.77;;;4.00;;
19127;SDS011;9696;53.686;10.094;2024-02-14T03:22:15;5.70;;;3.53;;
19127;SDS011;9696;53.686;10.094;2024-02-14T03:24:45;7.20;;;3.50;;
19127;SDS011;9696;53.686;10.094;2024-02-14T03:27:14;8.10;;;3.10;;
19127;SDS011;9696;53.686;10.094;2024-02-14T03:29:43;5.43;;;2.50;;
19127;SDS011;9696;53.686;10.094;2024-02-14T03:32:15;4.07;;;2.33;;
19127;SDS011;9696;53.686;10.094;2024-02-14T03:34:44;3.00;;;2.20;;
19127;SDS011;9696;53.686;10.094;2024-02-14T03:37:12;5.90;;;2.17;;
19127;SDS011;9696;53.686;10.094;2024-02-14T03:39:41;3.50;;;2.40;;
19127;SDS011;9696;53.686;10.094;2024-02-14T03:42:09;5.73;;;2.07;;
19127;SDS011;9696;53.686;10.094;2024-02-14T03:44:38;3.63;;;2.33;;
19127;SDS011;9696;53.686;10.094;2024-02-14T03:47:07;6.70;;;2.40;;
19127;SDS011;9696;53.686;10.094;2024-02-14T03:49:37;2.23;;;1.87;;
19127;SDS011;9696;53.686;10.094;2024-02-14T03:52:07;3.90;;;1.93;;
19127;SDS011;9696;53.686;10.094;2024-02-14T03:54:37;4.47;;;1.70;;
19127;SDS011;9696;53.686;10.094;2024-02-14T03:57:06;5.93;;;1.93;;
19127;SDS011;9696;53.686;10.094;2024-02-14T03:59:36;4.03;;;2.00;;
19127;SDS011;9696;53.686;10.094;2024-02-14T04:02:05;5.13;;;1.80;;
19127;SDS011;9696;53.686;10.094;2024-02-14T04:04:37;4.33;;;1.90;;
19127;SDS011;9696;53.686;10.094;2024-02-14T04:07:06;2.67;;;1.60;;
19127;SDS011;9696;53.686;10.094;2024-02-14T04:09:36;3.00;;;1.67;;
19127;SDS011;9696;53.686;10.094;2024-02-14T04:12:04;3.70;;;2.20;;
19127;SDS011;9696;53.686;10.094;2024-02-14T04:14:33;4.13;;;1.93;;
19127;SDS011;9696;53.686;10.094;2024-02-14T04:17:03;2.97;;;1.93;;
19127;SDS011;9696;53.686;10.094;2024-02-14T04:19:32;5.87;;;2.13;;
19127;SDS011;9696;53.686;10.094;2024-02-14T04:22:02;3.70;;;1.90;;
19127;SDS011;9696;53.686;10.094;2024-02-14T04:24:32;3.13;;;2.13;;
19127;SDS011;9696;53.686;10.094;2024-02-14T04:27:01;4.03;;;2.33;;
19127;SDS011;9696;53.686;10.094;2024-02-14T04:29:31;4.43;;;1.83;;
19127;SDS011;9696;53.686;10.094;2024-02-14T04:32:01;4.03;;;1.97;;
19127;SDS011;9696;53.686;10.094;2024-02-14T04:34:29;4.40;;;2.20;;
19127;SDS011;9696;53.686;10.094;2024-02-14T04:36:58;15.27;;;2.10;;
19127;SDS011;9696;53.686;10.094;2024-02-14T04:39:30;5.73;;;2.10;;
19127;SDS011;9696;53.686;10.094;2024-02-14T04:41:58;2.23;;;1.60;;
19127;SDS011;9696;53.686;10.094;2024-02-14T04:44:28;5.03;;;1.73;;
19127;SDS011;9696;53.686;10.094;2024-02-14T04:46:58;3.90;;;1.70;;
19127;SDS011;9696;53.686;10.094;2024-02-14T04:49:26;4.97;;;2.20;;
19127;SDS011;9696;53.686;10.094;2024-02-14T04:51:56;2.80;;;2.10;;
19127;SDS011;9696;53.686;10.094;2024-02-14T04:54:25;4.27;;;1.90;;
19127;SDS011;9696;53.686;10.094;2024-02-14T04:56:55;4.43;;;2.33;;
19127;SDS011;9696;53.686;10.094;2024-02-14T04:59:28;4.70;;;1.90;;
19127;SDS011;9696;53.686;10.094;2024-02-14T05:01:57;5.37;;;2.13;;
19127;SDS011;9696;53.686;10.094;2024-02-14T05:04:26;3.43;;;2.00;;
19127;SDS011;9696;53.686;10.094;2024-02-14T05:06:55;3.00;;;1.93;;
19127;SDS011;9696;53.686;10.094;2024-02-14T05:09:25;2.80;;;1.67;;
19127;SDS011;9696;53.686;10.094;2024-02-14T05:11:55;2.87;;;2.20;;
19127;SDS011;9696;53.686;10.094;2024-02-14T05:14:24;3.80;;;2.13;;
19127;SDS011;9696;53.686;10.094;2024-02-14T05:16:52;3.73;;;2.40;;
19127;SDS011;9696;53.686;10.094;2024-02-14T05:19:22;3.40;;;2.10;;
19127;SDS011;9696;53.686;10.094;2024-02-14T05:21:51;3.13;;;1.97;;
19127;SDS011;9696;53.686;10.094;2024-02-14T05:24:19;6.93;;;2.30;;
19127;SDS011;9696;53.686;10.094;2024-02-14T05:26:48;5.73;;;2.10;;
19127;SDS011;9696;53.686;10.094;2024-02-14T05:29:20;6.03;;;2.67;;
19127;SDS011;9696;53.686;10.094;2024-02-14T05:31:49;3.23;;;2.07;;
19127;SDS011;9696;53.686;10.094;2024-02-14T05:34:18;2.97;;;2.00;;
19127;SDS011;9696;53.686;10.094;2024-02-14T05:36:47;3.43;;;2.63;;
19127;SDS011;9696;53.686;10.094;2024-02-14T05:39:16;3.90;;;2.40;;
19127;SDS011;9696;53.686;10.094;2024-02-14T05:41:45;3.30;;;2.00;;
19127;SDS011;9696;53.686;10.094;2024-02-14T05:44:15;4.30;;;2.40;;
19127;SDS011;9696;53.686;10.094;2024-02-14T05:46:45;5.37;;;2.17;;
19127;SDS011;9696;53.686;10.094;2024-02-14T05:49:14;2.83;;;2.23;;
19127;SDS011;9696;53.686;10.094;2024-02-14T05:51:43;4.43;;;2.30;;
19127;SDS011;9696;53.686;10.094;2024-02-14T05:54:12;3.73;;;2.00;;
19127;SDS011;9696;53.686;10.094;2024-02-14T05:56:40;6.27;;;2.57;;
19127;SDS011;9696;53.686;10.094;2024-02-14T05:59:09;2.67;;;2.00;;
19127;SDS011;9696;53.686;10.094;2024-02-14T06:01:37;4.60;;;2.80;;
19127;SDS011;9696;53.686;10.094;2024-02-14T06:04:07;5.20;;;2.90;;
19127;SDS011;9696;53.686;10.094;2024-02-14T06:06:36;3.50;;;2.60;;
19127;SDS011;9696;53.686;10.094;2024-02-14T06:09:05;4.10;;;2.53;;
19127;SDS011;9696;53.686;10.094;2024-02-14T06:11:37;2.90;;;2.30;;
19127;SDS011;9696;53.686;10.094;2024-02-14T06:14:06;3.77;;;2.40;;
19127;SDS011;9696;53.686;10.094;2024-02-14T06:16:35;5.13;;;2.77;;
19127;SDS011;9696;53.686;10.094;2024-02-14T06:19:04;5.40;;;2.83;;
19127;SDS011;9696;53.686;10.094;2024-02-14T06:21:34;3.93;;;2.50;;
19127;SDS011;9696;53.686;10.094;2024-02-14T06:24:03;3.93;;;2.50;;
19127;SDS011;9696;53.686;10.094;2024-02-14T06:26:31;5.73;;;2.67;;
19127;SDS011;9696;53.686;10.094;2024-02-14T06:29:00;3.50;;;2.60;;
19127;SDS011;9696;53.686;10.094;2024-02-14T06:31:33;4.33;;;2.63;;
19127;SDS011;9696;53.686;10.094;2024-02-14T06:34:01;3.33;;;2.33;;
19127;SDS011;9696;53.686;10.094;2024-02-14T06:36:30;7.37;;;2.67;;
19127;SDS011;9696;53.686;10.094;2024-02-14T06:39:00;4.40;;;2.50;;
19127;SDS011;9696;53.686;10.094;2024-02-14T06:41:29;5.77;;;2.70;;
19127;SDS011;9696;53.686;10.094;2024-02-14T06:43:58;4.77;;;2.73;;
19127;SDS011;9696;53.686;10.094;2024-02-14T06:46:26;4.47;;;2.80;;
19127;SDS011;9696;53.686;10.094;2024-02-14T06:48:55;4.50;;;2.63;;
19127;SDS011;9696;53.686;10.094;2024-02-14T06:51:24;4.37;;;2.80;;
19127;SDS011;9696;53.686;10.094;2024-02-14T06:53:52;4.50;;;2.90;;
19127;SDS011;9696;53.686;10.094;2024-02-14T06:56:22;4.53;;;3.03;;
19127;SDS011;9696;53.686;10.094;2024-02-14T06:58:51;3.87;;;2.73;;
19127;SDS011;9696;53.686;10.094;2024-02-14T07:01:20;4.53;;;3.23;;
19127;SDS011;9696;53.686;10.094;2024-02-14T07:03:49;4.30;;;3.10;;
19127;SDS011;9696;53.686;10.094;2024-02-14T07:06:18;7.00;;;3.00;;
19127;SDS011;9696;53.686;10.094;2024-02-14T07:08:47;4.93;;;2.43;;
19127;SDS011;9696;53.686;10.094;2024-02-14T07:11:16;4.97;;;3.10;;
19127;SDS011;9696;53.686;10.094;2024-02-14T07:13:46;5.27;;;2.73;;
19127;SDS011;9696;53.686;10.094;2024-02-14T07:16:14;6.07;;;3.23;;
19127;SDS011;9696;53.686;10.094;2024-02-14T07:18:42;3.20;;;2.27;;
19127;SDS011;9696;53.686;10.094;2024-02-14T07:21:11;6.37;;;2.97;;
19127;SDS011;9696;53.686;10.094;2024-02-14T07:23:39;3.83;;;2.60;;
19127;SDS011;9696;53.686;10.094;2024-02-14T07:26:08;6.40;;;2.63;;
19127;SDS011;9696;53.686;10.094;2024-02-14T07:28:36;3.93;;;3.10;;
19127;SDS011;9696;53.686;10.094;2024-02-14T07:31:06;3.87;;;2.70;;
19127;SDS011;9696;53.686;10.094;2024-02-14T07:33:35;3.87;;;2.53;;
19127;SDS011;9696;53.686;10.094;2024-02-14T07:36:04;4.33;;;2.80;;
19127;SDS011;9696;53.686;10.094;2024-02-14T07:38:33;2.93;;;2.53;;
19127;SDS011;9696;53.686;10.094;2024-02-14T07:41:01;3.30;;;2.57;;
19127;SDS011;9696;53.686;10.094;2024-02-14T07:43:30;2.40;;;2.10;;
19127;SDS011;9696;53.686;10.094;2024-02-14T07:45:58;4.03;;;2.97;;
19127;SDS011;9696;53.686;10.094;2024-02-14T07:48:28;5.07;;;3.40;;
19127;SDS011;9696;53.686;10.094;2024-02-14T07:50:57;4.33;;;3.50;;
19127;SDS011;9696;53.686;10.094;2024-02-14T07:53:26;4.90;;;2.80;;
19127;SDS011;9696;53.686;10.094;2024-02-14T07:55:54;4.30;;;3.00;;
19127;SDS011;9696;53.686;10.094;2024-02-14T07:58:23;4.00;;;2.90;;
19127;SDS011;9696;53.686;10.094;2024-02-14T08:00:52;6.13;;;3.03;;
19127;SDS011;9696;53.686;10.094;2024-02-14T08:03:20;6.33;;;2.97;;
19127;SDS011;9696;53.686;10.094;2024-02-14T08:05:50;5.07;;;3.00;;
19127;SDS011;9696;53.686;10.094;2024-02-14T08:08:19;5.77;;;3.43;;
19127;SDS011;9696;53.686;10.094;2024-02-14T08:10:47;4.80;;;2.90;;
19127;SDS011;9696;53.686;10.094;2024-02-14T08:13:16;5.30;;;3.67;;
19127;SDS011;9696;53.686;10.094;2024-02-14T08:15:45;5.23;;;3.00;;
19127;SDS011;9696;53.686;10.094;2024-02-14T08:18:13;4.93;;;3.20;;
19127;SDS011;9696;53.686;10.094;2024-02-14T08:20:42;4.77;;;2.93;;
19127;SDS011;9696;53.686;10.094;2024-02-14T08:23:12;4.60;;;2.73;;
19127;SDS011;9696;53.686;10.094;2024-02-14T08:25:41;4.70;;;3.43;;
19127;SDS011;9696;53.686;10.094;2024-02-14T08:28:09;4.87;;;3.13;;
19127;SDS011;9696;53.686;10.094;2024-02-14T08:30:38;8.00;;;4.23;;
19127;SDS011;9696;53.686;10.094;2024-02-14T08:33:07;9.83;;;3.63;;
19127;SDS011;9696;53.686;10.094;2024-02-14T08:35:37;11.07;;;4.93;;
19127;SDS011;9696;53.686;10.094;2024-02-14T08:38:09;8.73;;;4.23;;
19127;SDS011;9696;53.686;10.094;2024-02-14T08:40:39;9.17;;;4.63;;
19127;SDS011;9696;53.686;10.094;2024-02-14T08:43:08;6.13;;;3.47;;
19127;SDS011;9696;53.686;10.094;2024-02-14T08:45:38;7.10;;;3.97;;
19127;SDS011;9696;53.686;10.094;2024-02-14T08:48:07;5.77;;;3.70;;
19127;SDS011;9696;53.686;10.094;2024-02-14T08:50:35;4.50;;;3.30;;
19127;SDS011;9696;53.686;10.094;2024-02-14T08:53:04;5.60;;;3.40;;
19127;SDS011;9696;53.686;10.094;2024-02-14T08:55:33;9.27;;;4.90;;
19127;SDS011;9696;53.686;10.094;2024-02-14T08:58:04;7.03;;;3.83;;
19127;SDS011;9696;53.686;10.094;2024-02-14T09:00:33;8.47;;;3.97;;
19127;SDS011;9696;53.686;10.094;2024-02-14T09:03:02;6.20;;;3.43;;
19127;SDS011;9696;53.686;10.094;2024-02-14T09:05:31;4.70;;;3.03;;
19127;SDS011;9696;53.686;10.094;2024-02-14T09:08:00;3.50;;;2.70;;
19127;SDS011;9696;53.686;10.094;2024-02-14T09:10:29;7.03;;;3.67;;
19127;SDS011;9696;53.686;10.094;2024-02-14T09:12:58;7.17;;;3.87;;
19127;SDS011;9696;53.686;10.094;2024-02-14T09:15:28;6.50;;;3.80;;
19127;SDS011;9696;53.686;10.094;2024-02-14T09:17:58;4.43;;;3.30;;
19127;SDS011;9696;53.686;10.094;2024-02-14T09:20:27;4.17;;;3.07;;
19127;SDS011;9696;53.686;10.094;2024-02-14T09:22:56;5.47;;;3.67;;
19127;SDS011;9696;53.686;10.094;2024-02-14T09:25:25;4.67;;;3.07;;
19127;SDS011;9696;53.686;10.094;2024-02-14T09:27:54;4.27;;;3.20;;
19127;SDS011;9696;53.686;10.094;2024-02-14T09:30:22;9.97;;;5.17;;
19127;SDS011;9696;53.686;10.094;2024-02-14T09:33:05;7.30;;;3.87;;
19127;SDS011;9696;53.686;10.094;2024-02-14T09:35:34;5.93;;;3.30;;
19127;SDS011;9696;53.686;10.094;2024-02-14T09:38:04;4.17;;;3.07;;
19127;SDS011;9696;53.686;10.094;2024-02-14T09:40:33;7.33;;;4.57;;
19127;SDS011;9696;53.686;10.094;2024-02-14T09:43:03;5.50;;;3.33;;
19127;SDS011;9696;53.686;10.094;2024-02-14T09:45:34;4.23;;;2.77;;
19127;SDS011;9696;53.686;10.094;2024-02-14T09:48:03;3.67;;;2.53;;
19127;SDS011;9696;53.686;10.094;2024-02-14T09:50:33;7.23;;;3.63;;
19127;SDS011;9696;53.686;10.094;2024-02-14T09:53:03;5.03;;;3.37;;
19127;SDS011;9696;53.686;10.094;2024-02-14T09:55:34;3.60;;;2.47;;
19127;SDS011;9696;53.686;10.094;2024-02-14T09:58:05;4.93;;;3.20;;
19127;SDS011;9696;53.686;10.094;2024-02-14T10:00:34;4.50;;;3.30;;
19127;SDS011;9696;53.686;10.094;2024-02-14T10:03:04;4.47;;;3.03;;
19127;SDS011;9696;53.686;10.094;2024-02-14T10:05:34;4.57;;;3.07;;
19127;SDS011;9696;53.686;10.094;2024-02-14T10:08:03;4.03;;;3.00;;
19127;SDS011;9696;53.686;10.094;2024-02-14T10:10:32;4.60;;;3.70;;
19127;SDS011;9696;53.686;10.094;2024-02-14T10:13:03;4.07;;;2.93;;
19127;SDS011;9696;53.686;10.094;2024-02-14T10:15:32;4.70;;;3.13;;
19127;SDS011;9696;53.686;10.094;2024-02-14T10:18:01;4.50;;;3.37;;
19127;SDS011;9696;53.686;10.094;2024-02-14T10:20:30;4.10;;;3.10;;
19127;SDS011;9696;53.686;10.094;2024-02-14T10:23:03;4.60;;;3.30;;
19127;SDS011;9696;53.686;10.094;2024-02-14T10:25:34;4.33;;;3.30;;
19127;SDS011;9696;53.686;10.094;2024-02-14T10:28:03;4.20;;;3.23;;
19127;SDS011;9696;53.686;10.094;2024-02-14T10:30:35;5.97;;;3.40;;
19127;SDS011;9696;53.686;10.094;2024-02-14T10:33:04;5.07;;;3.10;;
19127;SDS011;9696;53.686;10.094;2024-02-14T10:35:50;3.07;;;2.70;;
19127;SDS011;9696;53.686;10.094;2024-02-14T10:38:25;4.70;;;2.97;;
19127;SDS011;9696;53.686;10.094;2024-02-14T10:40:56;2.70;;;2.47;;
19127;SDS011;9696;53.686;10.094;2024-02-14T10:43:26;3.70;;;2.13;;
19127;SDS011;9696;53.686;10.094;2024-02-14T10:45:55;4.13;;;2.57;;
19127;SDS011;9696;53.686;10.094;2024-02-14T10:48:25;2.73;;;2.30;;
19127;SDS011;9696;53.686;10.094;2024-02-14T10:50:54;2.80;;;2.10;;
19127;SDS011;9696;53.686;10.094;2024-02-14T10:53:28;2.90;;;2.60;;
19127;SDS011;9696;53.686;10.094;2024-02-14T10:55:57;2.43;;;2.20;;
19127;SDS011;9696;53.686;10.094;2024-02-14T10:58:27;2.03;;;1.83;;
19127;SDS011;9696;53.686;10.094;2024-02-14T11:00:57;4.60;;;2.10;;
19127;SDS011;9696;53.686;10.094;2024-02-14T11:03:26;3.60;;;2.50;;
19127;SDS011;9696;53.686;10.094;2024-02-14T11:06:00;2.33;;;1.87;;
19127;SDS011;9696;53.686;10.094;2024-02-14T11:08:32;1.73;;;1.37;;
19127;SDS011;9696;53.686;10.094;2024-02-14T11:11:02;1.77;;;1.53;;
19127;SDS011;9696;53.686;10.094;2024-02-14T11:13:35;3.00;;;2.03;;
19127;SDS011;9696;53.686;10.094;2024-02-14T11:16:04;1.33;;;1.23;;
19127;SDS011;9696;53.686;10.094;2024-02-14T11:18:34;1.70;;;1.40;;
19127;SDS011;9696;53.686;10.094;2024-02-14T11:21:03;2.10;;;1.60;;
19127;SDS011;9696;53.686;10.094;2024-02-14T11:23:34;1.93;;;1.60;;
19127;SDS011;9696;53.686;10.094;2024-02-14T11:26:03;1.70;;;1.50;;
19127;SDS011;9696;53.686;10.094;2024-02-14T11:28:36;2.30;;;1.43;;
19127;SDS011;9696;53.686;10.094;2024-02-14T11:31:07;1.60;;;1.40;;
19127;SDS011;9696;53.686;10.094;2024-02-14T11:33:37;1.97;;;1.50;;
19127;SDS011;9696;53.686;10.094;2024-02-14T11:36:07;2.77;;;1.70;;
19127;SDS011;9696;53.686;10.094;2024-02-14T11:38:39;1.53;;;1.30;;
19127;SDS011;9696;53.686;10.094;2024-02-14T11:41:10;1.50;;;1.40;;
19127;SDS011;9696;53.686;10.094;2024-02-14T11:43:39;1.83;;;1.63;;
19127;SDS011;9696;53.686;10.094;2024-02-14T11:46:07;2.43;;;1.50;;
19127;SDS011;9696;53.686;10.094;2024-02-14T11:48:37;2.67;;;1.67;;
19127;SDS011;9696;53.686;10.094;2024-02-14T11:51:07;1.87;;;1.50;;
19127;SDS011;9696;53.686;10.094;2024-02-14T11:53:36;2.40;;;1.47;;
19127;SDS011;9696;53.686;10.094;2024-02-14T11:56:06;2.40;;;1.60;;
19127;SDS011;9696;53.686;10.094;2024-02-14T11:58:34;1.43;;;1.30;;
19127;SDS011;9696;53.686;10.094;2024-02-14T12:01:03;1.40;;;1.30;;
19127;SDS011;9696;53.686;10.094;2024-02-14T12:03:32;1.67;;;1.33;;
19127;SDS011;9696;53.686;10.094;2024-02-14T12:06:02;3.10;;;1.43;;
19127;SDS011;9696;53.686;10.094;2024-02-14T12:08:32;1.80;;;1.53;;
19127;SDS011;9696;53.686;10.094;2024-02-14T12:11:01;1.40;;;1.30;;
19127;SDS011;9696;53.686;10.094;2024-02-14T12:13:31;1.67;;;1.40;;
19127;SDS011;9696;53.686;10.094;2024-02-14T12:16:01;1.80;;;1.33;;
19127;SDS011;9696;53.686;10.094;2024-02-14T12:18:30;3.20;;;1.37;;
19127;SDS011;9696;53.686;10.094;2024-02-14T12:21:04;1.77;;;1.57;;
19127;SDS011;9696;53.686;10.094;2024-02-14T12:23:35;1.60;;;1.50;;
19127;SDS011;9696;53.686;10.094;2024-02-14T12:26:04;1.13;;;1.00;;
19127;SDS011;9696;53.686;10.094;2024-02-14T12:28:34;1.60;;;1.47;;
19127;SDS011;9696;53.686;10.094;2024-02-14T12:31:03;2.63;;;1.57;;
19127;SDS011;9696;53.686;10.094;2024-02-14T12:33:32;3.60;;;1.60;;
19127;SDS011;9696;53.686;10.094;2024-02-14T12:36:02;2.77;;;2.00;;
19127;SDS011;9696;53.686;10.094;2024-02-14T12:38:30;2.63;;;1.70;;
19127;SDS011;9696;53.686;10.094;2024-02-14T12:40:59;3.20;;;1.90;;
19127;SDS011;9696;53.686;10.094;2024-02-14T12:43:28;3.70;;;1.77;;
19127;SDS011;9696;53.686;10.094;2024-02-14T12:45:58;3.00;;;1.50;;
19127;SDS011;9696;53.686;10.094;2024-02-14T12:48:27;1.80;;;1.60;;
19127;SDS011;9696;53.686;10.094;2024-02-14T12:50:56;4.17;;;1.67;;
19127;SDS011;9696;53.686;10.094;2024-02-14T12:53:25;5.20;;;1.47;;
19127;SDS011;9696;53.686;10.094;2024-02-14T12:55:54;3.27;;;1.60;;
19127;SDS011;9696;53.686;10.094;2024-02-14T12:58:22;1.57;;;1.47;;
19127;SDS011;9696;53.686;10.094;2024-02-14T13:00:51;2.53;;;1.27;;
19127;SDS011;9696;53.686;10.094;2024-02-14T13:03:21;1.73;;;1.30;;
19127;SDS011;9696;53.686;10.094;2024-02-14T13:05:50;1.57;;;1.27;;
19127;SDS011;9696;53.686;10.094;2024-02-14T13:08:19;1.50;;;1.20;;
19127;SDS011;9696;53.686;10.094;2024-02-14T13:10:50;1.30;;;1.17;;
19127;SDS011;9696;53.686;10.094;2024-02-14T13:13:19;2.30;;;1.00;;
19127;SDS011;9696;53.686;10.094;2024-02-14T13:15:48;2.13;;;1.50;;
19127;SDS011;9696;53.686;10.094;2024-02-14T13:18:16;1.93;;;1.27;;
19127;SDS011;9696;53.686;10.094;2024-02-14T13:20:47;1.60;;;1.27;;
19127;SDS011;9696;53.686;10.094;2024-02-14T13:23:23;1.50;;;1.10;;
19127;SDS011;9696;53.686;10.094;2024-02-14T13:25:51;0.80;;;0.80;;
19127;SDS011;9696;53.686;10.094;2024-02-14T13:28:20;1.43;;;1.10;;
19127;SDS011;9696;53.686;10.094;2024-02-14T13:30:49;1.70;;;1.10;;
19127;SDS011;9696;53.686;10.094;2024-02-14T13:33:21;1.40;;;1.10;;
19127;SDS011;9696;53.686;10.094;2024-02-14T13:35:51;1.70;;;1.30;;
19127;SDS011;9696;53.686;10.094;2024-02-14T13:38:20;1.60;;;1.20;;
19127;SDS011;9696;53.686;10.094;2024-02-14T13:40:48;1.40;;;1.30;;
19127;SDS011;9696;53.686;10.094;2024-02-14T13:43:17;2.23;;;1.70;;
19127;SDS011;9696;53.686;10.094;2024-02-14T13:45:46;2.87;;;2.27;;
19127;SDS011;9696;53.686;10.094;2024-02-14T13:48:16;2.90;;;2.10;;
19127;SDS011;9696;53.686;10.094;2024-02-14T13:50:45;3.50;;;2.10;;
19127;SDS011;9696;53.686;10.094;2024-02-14T13:53:17;2.63;;;2.03;;
19127;SDS011;9696;53.686;10.094;2024-02-14T13:55:46;6.53;;;2.20;;
19127;SDS011;9696;53.686;10.094;2024-02-14T13:58:14;3.00;;;2.30;;
19127;SDS011;9696;53.686;10.094;2024-02-14T14:00:44;4.33;;;3.00;;
19127;SDS011;9696;53.686;10.094;2024-02-14T14:03:12;3.83;;;2.90;;
19127;SDS011;9696;53.686;10.094;2024-02-14T14:05:41;4.33;;;2.87;;
19127;SDS011;9696;53.686;10.094;2024-02-14T14:08:10;4.37;;;2.80;;
19127;SDS011;9696;53.686;10.094;2024-02-14T14:10:39;5.30;;;3.50;;
19127;SDS011;9696;53.686;10.094;2024-02-14T14:13:09;6.17;;;3.67;;
19127;SDS011;9696;53.686;10.094;2024-02-14T14:15:40;4.83;;;3.03;;
19127;SDS011;9696;53.686;10.094;2024-02-14T14:18:09;4.40;;;2.90;;
19127;SDS011;9696;53.686;10.094;2024-02-14T14:20:38;6.70;;;3.13;;
19127;SDS011;9696;53.686;10.094;2024-02-14T14:23:07;4.50;;;2.60;;
19127;SDS011;9696;53.686;10.094;2024-02-14T14:25:35;5.73;;;3.20;;
19127;SDS011;9696;53.686;10.094;2024-02-14T14:28:06;4.43;;;3.00;;
19127;SDS011;9696;53.686;10.094;2024-02-14T14:30:36;5.47;;;3.30;;
19127;SDS011;9696;53.686;10.094;2024-02-14T14:33:05;4.00;;;2.97;;
19127;SDS011;9696;53.686;10.094;2024-02-14T14:35:35;5.00;;;3.23;;
19127;SDS011;9696;53.686;10.094;2024-02-14T14:38:03;4.53;;;3.03;;
19127;SDS011;9696;53.686;10.094;2024-02-14T14:40:33;4.43;;;3.13;;
19127;SDS011;9696;53.686;10.094;2024-02-14T14:43:03;4.03;;;2.97;;
19127;SDS011;9696;53.686;10.094;2024-02-14T14:45:35;4.77;;;3.37;;
19127;SDS011;9696;53.686;10.094;2024-02-14T14:48:05;5.40;;;3.50;;
19127;SDS011;9696;53.686;10.094;2024-02-14T14:50:35;5.33;;;3.77;;
19127;SDS011;9696;53.686;10.094;2024-02-14T14:53:04;5.20;;;3.60;;
19127;SDS011;9696;53.686;10.094;2024-02-14T14:55:49;5.67;;;3.23;;
19127;SDS011;9696;53.686;10.094;2024-02-14T14:58:18;6.07;;;3.60;;
19127;SDS011;9696;53.686;10.094;2024-02-14T15:00:54;5.07;;;3.60;;